METAR Reports From Nearby Airports

 

KLUD - Decatur, Texas, USA
Distance from Wildwood: IKA 5mi, 8km
Päivitetty: Apr 18, 2019 11:55pm
Selkeätä
Selkeätä
 Tuulen suunta L
Tuuli: L 6 mph , 9 km/h
Lämpötila: 52°F , 11°C
Kastepiste: 45°F , 7°C
Kosteus: 77%
Ilmanpaine: 30.00 inHg , 1015.9 hPa
Clouds: Selkeätä
Visibility: 10 miles , 16 km
2019/04/19 04:55 KLUD 190455Z AUTO 28005KT 10SM CLR 11/07 A3000 RMK AO2 T01100072
KXBP - Bridgeport, Texas, USA
Distance from Wildwood: LLO 11mi, 18km
Päivitetty: Apr 18, 2019 11:55pm
Selkeätä
Selkeätä
 Tuulen suunta LLU
Tuuli: LLU 5 mph , 7 km/h
Lämpötila: 55°F , 13°C
Kastepiste: 45°F , 7°C
Kosteus: 67%
Ilmanpaine: 30.02 inHg , 1016.6 hPa
Clouds: Selkeätä
Visibility: 10 miles , 16 km
2019/04/19 04:55 KXBP 190455Z AUTO 29004KT 10SM CLR 13/07 A3002 RMK AO2 T01250071
 
K0F2 - Bowie, Texas, USA
Distance from Wildwood: PLU 24mi, 39km
Päivitetty: Apr 18, 2019 11:55pm
Selkeätä
Selkeätä
 Tuulen suunta L
Tuuli: L 7 mph , 11 km/h
Lämpötila: 52°F , 11°C
Kastepiste: 45°F , 7°C
Kosteus: 77%
Ilmanpaine: 30.00 inHg , 1015.9 hPa
Clouds: Selkeätä
Visibility: 10 miles , 16 km
2019/04/19 04:55 K0F2 190455Z AUTO 27006KT 10SM CLR 11/07 A3000 RMK AO2 T01090066
KDTO - Denton, Texas, USA
Distance from Wildwood: I 27mi, 44km
Päivitetty: Apr 18, 2019 11:53pm
Selkeätä
Selkeätä
 Tuulen suunta L
Tuuli: L 8 mph , 13 km/h
Lämpötila: 50°F , 10°C
Wind Chill: 47°F , 8°C
Kastepiste: 45°F , 7°C
Kosteus: 82%
Ilmanpaine: 29.97 inHg , 1014.9 hPa
Clouds: Selkeätä
Visibility: 10 miles , 16 km
2019/04/19 04:53 KDTO 190453Z AUTO 28007KT 10SM CLR 10/07 A2997 RMK AO2 SLP146 T01000072
 
KAFW - Ft Worth/Allianc, Texas, USA
Distance from Wildwood: KA 29mi, 46km
Päivitetty: Apr 18, 2019 11:53pm
Partly Cloudy
Partly Cloudy
 Tuulen suunta LLU
Tuuli: LLU 7 mph , 11 km/h
Lämpötila: 54°F , 12°C
Kastepiste: 46°F , 8°C
Kosteus: 77%
Ilmanpaine: 29.98 inHg , 1015.2 hPa
Clouds: Partly Cloudy
Visibility: 10 miles , 16 km
Cloud details: Few Clouds 15000 ft
Partly Cloudy 25000 ft
2019/04/19 04:53 KAFW 190453Z 29006KT 10SM FEW150 SCT250 12/08 A2998 RMK AO2 SLP150 T01170078
KFTW - Fort Worth, Texas, USA
Distance from Wildwood: EKA 34mi, 55km
Päivitetty: Apr 18, 2019 11:53pm
Selkeätä
Selkeätä
 Tuulen suunta L
Tuuli: L 7 mph , 11 km/h
Lämpötila: 52°F , 11°C
Kastepiste: 46°F , 8°C
Kosteus: 82%
Ilmanpaine: 29.98 inHg , 1015.2 hPa
Clouds: Selkeätä
Visibility: 10 miles , 16 km
2019/04/19 04:53 KFTW 190453Z 28006KT 10SM CLR 11/08 A2998 RMK AO2 SLP149 T01110078
 
KNFW - Fort Worth Nas, Texas, USA
Distance from Wildwood: EKA 36mi, 58km
Päivitetty: Apr 18, 2019 11:52pm
Selkeätä
Selkeätä
 Tuulen suunta LU
Tuuli: LU 8 mph , 13 km/h
Lämpötila: 57°F , 14°C
Kastepiste: 46°F , 8°C
Kosteus: 67%
Ilmanpaine: 29.99 inHg , 1015.6 hPa
Clouds: Selkeätä
Visibility: 10 miles , 16 km
2019/04/19 04:52 KNFW 190452Z AUTO 32007KT 10SM CLR 14/08 A2999 RMK AO2 SLP140 T01390078 VISNO N $
KGLE - Gainesville, Texas, USA
Distance from Wildwood: KO 38mi, 61km
Päivitetty: Apr 18, 2019 11:55pm
Selkeätä
Selkeätä
 Tuulen suunta calm
Tuuli: Tyyntä
Lämpötila: 50°F , 10°C
Kastepiste: 45°F , 7°C
Kosteus: 82%
Ilmanpaine: 29.98 inHg , 1015.2 hPa
Clouds: Selkeätä
Visibility: 10 miles , 16 km
2019/04/19 04:55 KGLE 190455Z AUTO 00000KT 10SM CLR 10/07 A2998 RMK AO2 T01030065
 
KMWL - Mineral Wells, Texas, USA
Distance from Wildwood: LO 41mi, 65km
Päivitetty: Apr 18, 2019 11:53pm
Selkeätä
Selkeätä
 Tuulen suunta P
Tuuli: P 3 mph , 6 km/h
Lämpötila: 54°F , 12°C
Kastepiste: 43°F , 6°C
Kosteus: 67%
Ilmanpaine: 30.00 inHg , 1015.9 hPa
Clouds: Selkeätä
Visibility: 10 miles , 16 km
2019/04/19 04:53 KMWL 190453Z AUTO 35003KT 10SM CLR 12/06 A3000 RMK AO2 SLP152 T01220061
KDFW - Dallas/Ft Worth, Texas, USA
Distance from Wildwood: IKA 45mi, 73km
Päivitetty: Apr 18, 2019 11:53pm
Few Clouds
Few Clouds
 Tuulen suunta LLU
Tuuli: LLU 10 mph , 17 km/h
Lämpötila: 55°F , 13°C
Kastepiste: 45°F , 7°C
Kosteus: 67%
Ilmanpaine: 29.95 inHg , 1014.2 hPa
Clouds: Few Clouds
Visibility: 10 miles , 16 km
Cloud details: Few Clouds 11000 ft
Few Clouds 25000 ft
2019/04/19 04:53 KDFW 190453Z 30009KT 10SM FEW110 FEW250 13/07 A2995 RMK AO2 SLP138 T01330072